createdAt,value
2023-02-22T00:02:25.697Z,7.70
2023-02-22T00:04:54.797Z,7.60
2023-02-22T00:07:24.558Z,7.50
2023-02-22T00:09:52.680Z,7.50
2023-02-22T00:12:20.857Z,7.50
2023-02-22T00:14:51.152Z,7.40
2023-02-22T00:17:21.529Z,7.50
2023-02-22T00:19:50.967Z,7.50
2023-02-22T00:22:20.619Z,7.50
2023-02-22T00:24:50.540Z,8.00
2023-02-22T00:27:18.926Z,7.50
2023-02-22T00:29:48.017Z,7.50
2023-02-22T00:32:16.790Z,7.70
2023-02-22T00:34:47.828Z,7.40
2023-02-22T00:37:16.157Z,7.30
2023-02-22T00:39:48.393Z,7.50
2023-02-22T00:42:18.550Z,7.20
2023-02-22T00:44:47.153Z,7.20
2023-02-22T00:47:15.322Z,7.10
2023-02-22T00:49:43.506Z,7.00
2023-02-22T00:52:13.706Z,7.20
2023-02-22T00:54:41.874Z,6.90
2023-02-22T00:57:11.308Z,6.90
2023-02-22T00:59:39.949Z,6.80
2023-02-22T01:02:10.512Z,6.80
2023-02-22T01:04:39.143Z,6.70
2023-02-22T01:07:07.576Z,6.60
2023-02-22T01:09:39.617Z,6.60
2023-02-22T01:12:09.706Z,6.50
2023-02-22T01:14:37.879Z,6.50
2023-02-22T01:17:06.848Z,6.50
2023-02-22T01:19:34.970Z,6.50
2023-02-22T01:22:05.480Z,6.40
2023-02-22T01:24:33.904Z,6.40
2023-02-22T01:27:03.993Z,6.30
2023-02-22T01:29:33.126Z,6.30
2023-02-22T01:32:02.119Z,6.20
2023-02-22T01:34:30.493Z,6.20
2023-02-22T01:36:58.812Z,6.20
2023-02-22T01:39:27.082Z,6.20
2023-02-22T01:41:55.548Z,6.10
2023-02-22T01:44:32.906Z,6.10
2023-02-22T01:47:03.087Z,6.10
2023-02-22T01:49:38.232Z,6.10
2023-02-22T01:52:15.049Z,6.00
2023-02-22T01:54:48.621Z,5.90
2023-02-22T01:57:23.697Z,5.90
2023-02-22T01:59:59.988Z,5.90
2023-02-22T02:02:29.642Z,5.80
2023-02-22T02:04:59.638Z,5.80
2023-02-22T02:07:29.970Z,5.90
2023-02-22T02:10:01.953Z,5.90
2023-02-22T02:12:36.011Z,5.80
2023-02-22T02:15:25.447Z,5.80
2023-02-22T02:18:00.684Z,5.80
2023-02-22T02:20:37.814Z,5.80
2023-02-22T02:23:18.105Z,5.70
2023-02-22T02:26:35.824Z,5.70
2023-02-22T02:29:49.405Z,5.70
2023-02-22T02:32:45.772Z,5.70
2023-02-22T02:35:24.171Z,5.70
2023-02-22T02:38:00.994Z,5.80
2023-02-22T02:40:57.492Z,5.80
2023-02-22T02:43:35.449Z,5.80
2023-02-22T02:46:11.409Z,5.80
2023-02-22T02:48:45.468Z,5.80
2023-02-22T02:51:17.556Z,5.90
2023-02-22T02:53:51.431Z,5.80
2023-02-22T02:56:23.600Z,5.80
2023-02-22T02:58:54.564Z,5.70
2023-02-22T03:01:51.919Z,5.70
2023-02-22T03:04:38.736Z,5.70
2023-02-22T03:07:51.009Z,5.70
2023-02-22T03:10:39.550Z,5.70
2023-02-22T03:13:20.758Z,5.80
2023-02-22T03:16:05.008Z,5.80
2023-02-22T03:18:50.356Z,5.80
2023-02-22T03:21:34.009Z,5.80
2023-02-22T03:24:10.864Z,5.90
2023-02-22T03:26:45.229Z,5.90
2023-02-22T03:29:36.616Z,5.90
2023-02-22T03:32:15.266Z,5.90
2023-02-22T03:34:47.493Z,5.90
2023-02-22T03:37:22.261Z,5.90
2023-02-22T03:39:56.015Z,5.90
2023-02-22T03:42:31.014Z,5.90
2023-02-22T03:45:05.612Z,5.90
2023-02-22T03:47:41.799Z,5.90
2023-02-22T03:50:16.531Z,5.90
2023-02-22T03:52:48.359Z,5.80
2023-02-22T03:55:27.467Z,5.80
2023-02-22T03:58:17.476Z,6.20
2023-02-22T04:00:46.604Z,5.80
2023-02-22T04:03:15.106Z,5.80
2023-02-22T04:05:43.444Z,5.80
2023-02-22T04:08:13.587Z,5.80
2023-02-22T04:10:44.446Z,5.80
2023-02-22T04:13:14.960Z,5.80
2023-02-22T04:15:47.990Z,5.60
2023-02-22T04:18:17.459Z,5.70
2023-02-22T04:20:47.607Z,5.60
2023-02-22T04:23:27.307Z,5.60
2023-02-22T04:25:56.799Z,5.50
2023-02-22T04:28:25.165Z,5.50
2023-02-22T04:34:04.841Z,5.30
2023-02-22T04:36:36.983Z,5.30
2023-02-22T04:39:06.886Z,5.30
2023-02-22T04:41:35.766Z,5.30
2023-02-22T04:44:05.460Z,5.30
2023-02-22T04:46:34.752Z,5.20
2023-02-22T04:49:03.693Z,5.20
2023-02-22T04:51:36.112Z,5.20
2023-02-22T04:54:09.573Z,5.10
2023-02-22T04:56:42.008Z,5.10
2023-02-22T04:59:10.381Z,5.00
2023-02-22T05:01:40.444Z,5.00
2023-02-22T05:04:10.443Z,4.90
2023-02-22T05:06:38.604Z,4.90
2023-02-22T05:09:08.151Z,5.00
2023-02-22T05:11:39.353Z,4.90
2023-02-22T05:14:07.840Z,4.90
2023-02-22T05:16:36.227Z,4.90
2023-02-22T05:19:04.997Z,5.00
2023-02-22T05:21:34.935Z,5.00
2023-02-22T05:24:05.806Z,4.90
2023-02-22T05:26:35.651Z,4.90
2023-02-22T05:29:05.336Z,4.80
2023-02-22T05:31:33.832Z,4.90
2023-02-22T05:34:02.636Z,4.90
2023-02-22T05:36:49.288Z,4.80
2023-02-22T05:39:17.913Z,4.80
2023-02-22T05:41:47.739Z,4.80
2023-02-22T05:44:16.040Z,4.80
2023-02-22T05:46:44.163Z,4.80
2023-02-22T05:49:34.401Z,4.80
2023-02-22T05:52:03.794Z,4.70
2023-02-22T05:54:32.535Z,4.70
2023-02-22T05:57:02.535Z,4.80
2023-02-22T05:59:31.391Z,4.80
2023-02-22T06:01:59.646Z,4.80
2023-02-22T06:04:28.140Z,4.80
2023-02-22T06:06:56.308Z,4.80
2023-02-22T06:09:25.393Z,4.80
2023-02-22T06:11:54.578Z,4.80
2023-02-22T06:14:26.867Z,4.80
2023-02-22T06:16:56.377Z,4.80
2023-02-22T06:19:25.031Z,4.80
2023-02-22T06:22:18.427Z,4.80
2023-02-22T06:24:47.618Z,4.80
2023-02-22T06:27:15.793Z,4.80
2023-02-22T06:29:51.835Z,4.80
2023-02-22T06:32:20.281Z,4.80
2023-02-22T06:34:49.443Z,4.80
2023-02-22T06:37:17.728Z,4.90
2023-02-22T06:39:48.460Z,4.90
2023-02-22T06:42:17.079Z,4.90
2023-02-22T06:44:49.335Z,4.90
2023-02-22T06:47:41.321Z,4.90
2023-02-22T06:50:25.658Z,4.90
2023-02-22T06:52:54.967Z,4.90
2023-02-22T06:55:28.614Z,4.90
2023-02-22T06:57:56.814Z,5.00
2023-02-22T07:00:29.268Z,5.00
2023-02-22T07:02:59.584Z,5.10
2023-02-22T07:05:29.614Z,5.10
2023-02-22T07:11:19.399Z,5.20
2023-02-22T07:13:47.763Z,5.40
2023-02-22T07:16:19.493Z,5.40
2023-02-22T07:18:47.791Z,5.50
2023-02-22T07:21:17.581Z,5.60
2023-02-22T07:23:53.763Z,5.70
2023-02-22T07:26:23.950Z,5.80
2023-02-22T07:28:52.861Z,5.90
2023-02-22T07:31:23.039Z,5.90
2023-02-22T07:33:51.666Z,6.00
2023-02-22T07:36:19.836Z,6.00
2023-02-22T07:38:48.220Z,6.00
2023-02-22T07:41:17.665Z,6.10
2023-02-22T07:43:45.961Z,6.20
2023-02-22T07:46:14.630Z,6.30
2023-02-22T07:48:45.900Z,6.40
2023-02-22T07:51:17.436Z,6.50
2023-02-22T07:53:45.955Z,6.60
2023-02-22T07:56:14.944Z,6.60
2023-02-22T07:58:43.428Z,6.80
2023-02-22T08:01:11.774Z,6.80
2023-02-22T08:03:59.838Z,7.00
2023-02-22T08:06:29.031Z,7.10
2023-02-22T08:08:57.166Z,7.20
2023-02-22T08:11:27.270Z,7.40
2023-02-22T08:13:56.461Z,7.50
2023-02-22T08:16:26.499Z,7.70
2023-02-22T08:19:00.228Z,7.80
2023-02-22T08:21:28.673Z,8.00
2023-02-22T08:23:56.791Z,8.20
2023-02-22T08:26:26.105Z,8.40
2023-02-22T08:28:54.481Z,8.50
2023-02-22T08:31:22.921Z,8.70
2023-02-22T08:33:51.262Z,8.80
2023-02-22T08:36:21.520Z,9.00
2023-02-22T08:38:50.205Z,9.20
2023-02-22T08:41:19.710Z,9.30
2023-02-22T08:49:43.149Z,9.70
2023-02-22T08:52:14.214Z,9.90
2023-02-22T08:54:42.352Z,10.00
2023-02-22T08:57:10.874Z,10.10
2023-02-22T08:59:40.350Z,10.20
2023-02-22T09:05:10.085Z,10.40
2023-02-22T09:07:43.446Z,10.50
2023-02-22T09:10:17.563Z,10.60
2023-02-22T09:12:45.801Z,10.70
2023-02-22T09:15:19.043Z,10.90
2023-02-22T09:17:47.415Z,11.00
2023-02-22T09:20:36.352Z,11.20
2023-02-22T09:23:12.554Z,11.30
2023-02-22T09:25:41.621Z,11.50
2023-02-22T09:28:32.886Z,11.70
2023-02-22T09:31:01.468Z,11.80
2023-02-22T09:33:29.715Z,11.90
2023-02-22T09:36:00.754Z,12.10
2023-02-22T09:38:33.359Z,12.20
2023-02-22T09:41:15.337Z,12.30
2023-02-22T09:43:53.934Z,12.50
2023-02-22T09:46:46.099Z,12.90
2023-02-22T09:49:26.735Z,12.80
2023-02-22T09:52:05.193Z,12.90
2023-02-22T09:54:43.866Z,13.20
2023-02-22T09:57:19.788Z,13.10
2023-02-22T10:00:20.937Z,13.20
2023-02-22T10:03:25.449Z,13.10
2023-02-22T10:06:04.371Z,13.20
2023-02-22T10:08:36.015Z,13.20
2023-02-22T10:11:45.517Z,13.20
2023-02-22T10:14:44.155Z,13.30
2023-02-22T10:17:30.200Z,13.30
2023-02-22T10:20:21.306Z,13.40
2023-02-22T10:23:12.408Z,13.50
2023-02-22T10:25:43.545Z,13.60
2023-02-22T10:28:22.483Z,13.60
2023-02-22T10:30:56.691Z,13.70
2023-02-22T10:33:31.539Z,13.90
2023-02-22T10:36:04.054Z,14.10
2023-02-22T10:38:35.847Z,13.90
2023-02-22T10:41:21.879Z,14.10
2023-02-22T10:43:52.042Z,14.20
2023-02-22T10:46:25.028Z,14.50
2023-02-22T10:49:00.526Z,14.70
2023-02-22T10:51:28.734Z,14.80
2023-02-22T10:54:20.344Z,15.10
2023-02-22T10:56:52.278Z,15.10
2023-02-22T10:59:35.323Z,15.30
2023-02-22T11:02:19.802Z,15.30
2023-02-22T11:04:50.915Z,15.30
2023-02-22T11:07:27.186Z,15.30
2023-02-22T11:09:58.186Z,15.20
2023-02-22T11:12:33.160Z,15.40
2023-02-22T11:15:29.536Z,15.50
2023-02-22T11:18:01.846Z,15.80
2023-02-22T11:20:38.440Z,16.00
2023-02-22T11:23:09.354Z,16.20
2023-02-22T11:25:42.305Z,16.30
2023-02-22T11:28:19.195Z,16.60
2023-02-22T11:30:54.700Z,17.00
2023-02-22T11:33:29.676Z,17.60
2023-02-22T11:39:00.112Z,18.40
2023-02-22T11:41:31.485Z,18.60
2023-02-22T11:44:21.639Z,19.00
2023-02-22T11:46:51.640Z,19.60
2023-02-22T11:49:20.495Z,20.10
2023-02-22T11:52:01.322Z,20.00
2023-02-22T11:55:36.410Z,19.90
2023-02-22T11:58:31.029Z,20.00
2023-02-22T12:01:08.792Z,19.80
2023-02-22T12:04:23.702Z,19.90
2023-02-22T12:07:03.146Z,20.10
2023-02-22T12:09:40.768Z,20.20
2023-02-22T12:12:17.903Z,20.80
2023-02-22T12:18:00.699Z,22.20
2023-02-22T12:20:37.188Z,22.90
2023-02-22T12:23:15.266Z,23.10
2023-02-22T12:25:58.393Z,23.50
2023-02-22T12:28:34.811Z,23.80
2023-02-22T12:31:14.789Z,23.90
2023-02-22T12:33:51.267Z,24.10
2023-02-22T12:36:26.013Z,24.60
2023-02-22T12:39:07.293Z,24.50
2023-02-22T12:41:41.603Z,24.70
2023-02-22T12:44:16.588Z,24.80
2023-02-22T12:46:48.708Z,24.90
2023-02-22T12:49:23.538Z,24.90
2023-02-22T12:52:01.433Z,24.80
2023-02-22T12:54:44.109Z,25.20
2023-02-22T12:57:20.265Z,25.40
2023-02-22T12:59:51.240Z,25.80
2023-02-22T13:02:23.651Z,25.80
2023-02-22T13:04:51.772Z,25.50
2023-02-22T13:07:34.888Z,24.80
2023-02-22T13:10:26.388Z,24.30
2023-02-22T13:13:04.498Z,24.00
2023-02-22T13:15:43.571Z,23.40
2023-02-22T13:18:17.620Z,22.90
2023-02-22T13:39:21.781Z,19.90
2023-02-22T13:42:09.054Z,19.80
2023-02-22T13:45:10.594Z,19.80
2023-02-22T13:48:13.706Z,19.70
2023-02-22T13:50:58.972Z,19.60
2023-02-22T13:53:28.542Z,19.50
2023-02-22T13:55:59.654Z,19.50
2023-02-22T13:58:29.050Z,19.50
2023-02-22T14:00:59.123Z,19.70
2023-02-22T14:03:36.456Z,19.70
2023-02-22T14:06:06.610Z,19.60
2023-02-22T14:08:47.367Z,19.40
2023-02-22T14:11:44.212Z,19.10
2023-02-22T14:14:20.776Z,18.80
2023-02-22T14:17:26.242Z,18.40
2023-02-22T14:20:14.746Z,18.10
2023-02-22T14:22:45.631Z,17.90
2023-02-22T14:25:37.710Z,17.70
2023-02-22T14:28:08.041Z,17.50
2023-02-22T14:30:40.166Z,17.30
2023-02-22T14:33:40.887Z,17.10
2023-02-22T14:36:10.303Z,17.00
2023-02-22T14:38:38.907Z,16.80
2023-02-22T14:41:09.215Z,16.50
2023-02-22T14:43:38.840Z,16.40
2023-02-22T14:46:13.507Z,16.30
2023-02-22T14:48:43.421Z,16.10
2023-02-22T14:51:21.839Z,16.00
2023-02-22T14:53:53.842Z,15.80
2023-02-22T14:56:24.725Z,15.60
2023-02-22T14:58:58.726Z,15.70
2023-02-22T15:01:47.467Z,15.70
2023-02-22T15:04:21.360Z,15.70
2023-02-22T15:06:50.093Z,15.60
2023-02-22T15:09:25.066Z,15.40
2023-02-22T15:12:13.326Z,15.20
2023-02-22T15:14:44.633Z,15.10
2023-02-22T15:17:20.154Z,15.00
2023-02-22T15:19:49.971Z,14.80
2023-02-22T15:22:22.851Z,14.70
2023-02-22T15:24:59.969Z,14.80
2023-02-22T15:27:28.662Z,14.50
2023-02-22T15:30:04.404Z,14.50
2023-02-22T15:32:36.879Z,14.40
2023-02-22T15:35:17.202Z,14.40
2023-02-22T15:37:45.409Z,14.30
2023-02-22T15:40:17.044Z,14.40
2023-02-22T15:42:47.960Z,14.20
2023-02-22T15:45:19.870Z,14.30
2023-02-22T15:47:50.174Z,14.10
2023-02-22T15:50:23.862Z,14.00
2023-02-22T15:52:58.039Z,14.00
2023-02-22T15:55:29.810Z,13.80
2023-02-22T15:58:01.737Z,13.80
2023-02-22T16:00:36.256Z,13.80
2023-02-22T16:03:09.354Z,13.70
2023-02-22T16:05:41.582Z,13.60
2023-02-22T16:08:17.954Z,13.50
2023-02-22T16:10:54.323Z,13.40
2023-02-22T16:13:31.933Z,13.30
2023-02-22T16:16:03.069Z,13.10
2023-02-22T16:18:35.216Z,13.10
2023-02-22T16:21:07.521Z,13.00
2023-02-22T16:23:46.742Z,12.90
2023-02-22T16:26:25.418Z,12.90
2023-02-22T16:28:56.601Z,12.90
2023-02-22T16:31:26.500Z,12.80
2023-02-22T16:33:56.276Z,12.80
2023-02-22T16:36:37.520Z,12.70
2023-02-22T16:39:07.629Z,12.60
2023-02-22T16:41:35.972Z,12.50
2023-02-22T16:44:07.998Z,12.40
2023-02-22T16:46:38.293Z,12.30
2023-02-22T16:49:08.018Z,12.30
2023-02-22T16:51:42.892Z,12.10
2023-02-22T16:54:12.150Z,12.10
2023-02-22T16:56:41.732Z,11.90
2023-02-22T16:59:15.070Z,11.90
2023-02-22T17:01:44.207Z,11.80
2023-02-22T17:04:18.077Z,11.70
2023-02-22T17:06:46.177Z,11.70
2023-02-22T17:09:15.522Z,11.60
2023-02-22T17:11:44.503Z,11.50
2023-02-22T17:14:19.093Z,11.50
2023-02-22T17:16:47.837Z,11.50
2023-02-22T17:19:20.200Z,11.40
2023-02-22T17:21:48.648Z,11.40
2023-02-22T17:24:22.400Z,11.30
2023-02-22T17:26:52.023Z,11.20
2023-02-22T17:29:22.662Z,11.20
2023-02-22T17:32:02.743Z,11.20
2023-02-22T17:34:34.117Z,11.30
2023-02-22T17:37:02.328Z,11.10
2023-02-22T17:39:30.434Z,11.00
2023-02-22T17:41:59.773Z,11.00
2023-02-22T17:44:30.153Z,11.00
2023-02-22T17:46:58.263Z,10.90
2023-02-22T17:49:26.246Z,10.80
2023-02-22T17:51:56.786Z,10.90
2023-02-22T17:54:28.468Z,10.80
2023-02-22T17:56:57.962Z,10.70
2023-02-22T17:59:26.023Z,11.00
2023-02-22T18:01:54.652Z,10.80
2023-02-22T18:04:22.845Z,10.80
2023-02-22T18:06:52.480Z,10.70
2023-02-22T18:09:23.331Z,10.70
2023-02-22T18:11:51.671Z,10.80
2023-02-22T18:14:19.664Z,10.80
2023-02-22T18:16:48.439Z,10.70
2023-02-22T18:19:20.426Z,10.60
2023-02-22T18:21:50.149Z,10.60
2023-02-22T18:24:18.752Z,10.60
2023-02-22T18:26:48.229Z,10.60
2023-02-22T18:29:16.378Z,10.60
2023-02-22T18:31:45.881Z,10.60
2023-02-22T18:34:15.815Z,10.60
2023-02-22T18:36:44.588Z,10.50
2023-02-22T18:39:12.978Z,10.50
2023-02-22T18:41:43.142Z,10.50
2023-02-22T18:44:12.585Z,10.50
2023-02-22T18:46:40.671Z,10.50
2023-02-22T18:49:10.808Z,10.50
2023-02-22T18:51:40.451Z,10.50
2023-02-22T18:54:08.516Z,10.40
2023-02-22T18:56:37.178Z,10.40
2023-02-22T18:59:06.501Z,10.40
2023-02-22T19:01:38.829Z,10.60
2023-02-22T19:04:09.649Z,10.30
2023-02-22T19:06:39.100Z,10.30
2023-02-22T19:09:08.867Z,10.40
2023-02-22T19:11:38.102Z,10.30
2023-02-22T19:14:06.493Z,10.30
2023-02-22T19:16:36.429Z,10.30
2023-02-22T19:19:04.800Z,10.20
2023-02-22T19:21:34.287Z,10.30
2023-02-22T19:24:04.501Z,10.20
2023-02-22T19:26:33.078Z,10.20
2023-02-22T19:29:06.261Z,10.20
2023-02-22T19:31:36.152Z,10.10
2023-02-22T19:34:09.051Z,10.10
2023-02-22T19:36:39.432Z,10.00
2023-02-22T19:39:07.745Z,10.00
2023-02-22T19:41:35.757Z,10.00
2023-02-22T19:44:04.316Z,9.90
2023-02-22T19:46:32.489Z,9.90
2023-02-22T19:49:04.132Z,9.90
2023-02-22T19:51:33.303Z,9.80
2023-02-22T19:54:03.972Z,9.80
2023-02-22T19:56:34.940Z,9.80
2023-02-22T19:59:09.254Z,9.70
2023-02-22T20:01:38.649Z,9.70
2023-02-22T20:04:10.451Z,9.60
2023-02-22T20:06:42.270Z,9.60
2023-02-22T20:09:13.444Z,9.60
2023-02-22T20:11:41.636Z,9.50
2023-02-22T20:14:09.640Z,9.80
2023-02-22T20:16:39.223Z,9.60
2023-02-22T20:19:09.271Z,9.90
2023-02-22T20:21:37.446Z,9.70
2023-02-22T20:24:08.599Z,9.60
2023-02-22T20:26:41.876Z,9.60
2023-02-22T20:29:11.558Z,9.70
2023-02-22T20:31:41.331Z,9.60
2023-02-22T20:34:12.462Z,9.60
2023-02-22T20:36:42.583Z,9.70
2023-02-22T20:39:14.625Z,9.70
2023-02-22T20:41:44.521Z,9.80
2023-02-22T20:44:15.191Z,9.80
2023-02-22T20:46:43.935Z,9.80
2023-02-22T20:49:17.253Z,9.80
2023-02-22T20:51:46.662Z,10.00
2023-02-22T20:54:15.163Z,10.00
2023-02-22T20:56:45.469Z,9.90
2023-02-22T21:02:05.130Z,10.10
2023-02-22T21:04:35.351Z,10.10
2023-02-22T21:07:03.369Z,10.30
2023-02-22T21:09:32.643Z,10.10
2023-02-22T21:12:00.643Z,10.10
2023-02-22T21:14:31.119Z,10.20
2023-02-22T21:16:59.346Z,10.20
2023-02-22T21:19:27.435Z,10.10
2023-02-22T21:21:58.487Z,10.10
2023-02-22T21:24:49.697Z,10.20
2023-02-22T21:27:18.163Z,10.20
2023-02-22T21:29:46.653Z,10.20
2023-02-22T21:32:14.884Z,10.20
2023-02-22T21:37:35.641Z,10.20
2023-02-22T21:41:17.941Z,10.30
2023-02-22T22:33:11.361Z,9.80
2023-02-22T22:35:41.762Z,9.80
2023-02-22T22:38:10.147Z,9.70
2023-02-22T22:40:38.938Z,9.70
2023-02-22T22:43:07.525Z,9.80
2023-02-22T22:45:36.316Z,9.70
2023-02-22T22:48:04.671Z,9.70
2023-02-22T22:50:35.314Z,9.70
2023-02-22T22:53:03.752Z,9.70
2023-02-22T22:55:31.986Z,9.70
2023-02-22T22:57:59.972Z,9.70
2023-02-22T23:00:37.611Z,9.60
2023-02-22T23:03:07.159Z,9.70
2023-02-22T23:05:42.289Z,9.80
2023-02-22T23:08:13.033Z,9.70
2023-02-22T23:10:41.969Z,9.70
2023-02-22T23:13:12.548Z,9.80
2023-02-22T23:15:43.993Z,9.70
2023-02-22T23:18:12.462Z,9.80
2023-02-22T23:20:42.173Z,9.80
2023-02-22T23:26:11.941Z,9.80
2023-02-22T23:28:59.654Z,9.80
2023-02-22T23:31:29.609Z,9.90
2023-02-22T23:34:00.534Z,9.90
2023-02-22T23:36:54.113Z,9.80
2023-02-22T23:39:23.903Z,9.80
2023-02-22T23:44:39.903Z,9.80
2023-02-22T23:47:09.668Z,9.80
2023-02-22T23:49:59.279Z,9.80
2023-02-22T23:52:29.881Z,9.60
2023-02-22T23:54:58.688Z,9.70
2023-02-22T23:57:27.166Z,9.70
2023-02-22T23:59:56.188Z,9.60
